Latest Weather Observations for Noonamah

IDD60801

Issued at 11:31 am CST Tuesday 23 December 2014 (issued every 30 minutes, with the page automatically refreshed every 10 minutes)

About weather observations | Map of weather stations | Latest weather observations for NT | Other Formats
Station Details ID: 014314 Name: NOONAMAH AIRSTRIP Lat: -12.61 Lon: 131.05 Height: 17.5 m
Data from the previous 72 hours. | See also: Recent months for locations in Northern Territory
Date/Time
CST
Temp
°C
App
Temp
°C
Dew
Point
Rel
Hum
%
Delta-T
°C
Wind Press
QNH
hPa
Press
MSL
hPa
Rain
since 9 am
mm
Dir
 
Spd
km/h
Gust
km/h
Spd
kts
Gust
kts
23/11:30am 33.2 37.6 23.5 56 6.7 SSE 6 13 3 7 1008.7 1008.5 0.0
23/11:00am 32.6 37.9 24.9 64 5.4 S 6 9 3 5 1008.9 1008.7 0.0
23/10:30am 31.1 36.2 24.7 68 4.5 N 6 9 3 5 1009.2 1009.0 0.0
23/10:00am 30.6 36.3 25.0 72 3.9 NNE 4 7 2 4 1009.5 1009.3 0.0
23/09:30am 29.8 35.8 24.9 75 3.4 NNE 2 6 1 3 1009.3 1009.1 0.0
23/09:00am 29.0 34.3 25.0 79 2.8 ENE 6 7 3 4 1009.6 1009.4 0.0
23/08:30am 28.4 34.0 24.8 81 2.5 E 4 6 2 3 1009.6 1009.4 0.0
23/08:00am 28.1 33.9 25.1 84 2.1 E 4 7 2 4 1009.3 1009.1 0.0
23/07:30am 27.3 33.2 25.3 89 1.4 E 4 6 2 3 1009.0 1008.8 0.0
23/07:00am 26.6 32.7 25.6 94 0.7 SE 4 4 2 2 1008.6 1008.4 0.0
23/06:30am 26.0 32.5 25.1 95 0.6 CALM 0 0 0 0 1008.4 1008.2 0.0
23/06:00am 26.4 32.8 25.5 95 0.6 SE 2 4 1 2 1007.7 1007.5 0.0
23/05:30am 26.2 32.4 25.2 94 0.7 SE 2 2 1 1 1007.7 1007.5 0.0
23/05:00am 26.6 33.4 25.6 94 0.7 CALM 0 0 0 0 1007.3 1007.1 0.0
23/04:30am 26.4 32.9 25.0 92 1.0 CALM 0 0 0 0 1007.2 1007.0 0.0
23/04:00am 27.1 33.9 25.5 91 1.1 CALM 0 2 0 1 1007.1 1006.9 0.0
23/03:30am 27.0 32.9 25.4 91 1.1 SSE 4 4 2 2 1007.2 1007.0 0.0
23/03:00am 27.3 33.4 25.1 88 1.5 S 2 2 1 1 1007.1 1006.9 0.0
23/02:30am 27.2 32.6 25.2 89 1.4 SSW 6 7 3 4 1007.1 1006.9 0.0
23/02:00am 27.3 34.3 25.9 92 1.0 CALM 0 0 0 0 1007.1 1006.9 0.0
23/01:30am 27.2 34.0 25.6 91 1.1 CALM 0 0 0 0 1007.1 1006.9 0.0
23/01:00am 27.6 34.6 25.8 90 1.3 CALM 0 0 0 0 1007.4 1007.2 0.0
23/12:30am 27.6 33.7 25.6 89 1.4 SSE 4 4 2 2 1007.7 1007.5 0.0
23/12:00am 27.5 34.1 25.3 88 1.5 CALM 0 0 0 0 1007.6 1007.4 0.0
 
Date/Time
CST
Temp
°C
App
Temp
°C
Dew
Point
Rel
Hum
%
Delta-T
°C
Wind Press
QNH
hPa
Press
MSL
hPa
Rain
since 9 am
mm
Dir
 
Spd
km/h
Gust
km/h
Spd
kts
Gust
kts
22/11:30pm 28.2 34.5 25.4 85 2.0 S 2 2 1 1 1007.7 1007.5 0.0
22/11:00pm 28.5 35.1 25.3 83 2.3 CALM 0 0 0 0 1007.7 1007.5 0.0
22/10:30pm 28.9 34.8 24.7 78 2.9 SW 2 4 1 2 1007.5 1007.3 0.0
22/10:00pm 29.2 34.9 25.0 78 2.9 W 4 4 2 2 1007.2 1007.0 0.0
22/09:30pm 29.5 35.0 24.6 75 3.4 W 4 6 2 3 1007.1 1006.9 0.0
22/09:00pm 29.8 35.0 24.2 72 3.9 NNW 4 6 2 3 1007.1 1006.9 0.0
22/08:30pm 30.3 35.4 24.0 69 4.4 NNW 4 4 2 2 1006.7 1006.5 0.0
22/08:00pm 31.0 35.7 23.4 64 5.2 W 4 6 2 3 1006.5 1006.3 0.0
22/07:30pm 31.7 35.6 23.0 60 6.0 WNW 7 11 4 6 1006.0 1005.8 0.0
22/07:00pm 33.0 36.9 21.8 51 7.6 N 4 4 2 2 1005.4 1005.2 0.0
22/06:30pm 33.8 37.3 21.9 49 8.1 NNW 6 13 3 7 1005.0 1004.8 0.0
22/06:00pm 34.7 38.2 22.1 48 8.7 NW 7 11 4 6 1004.7 1004.5 0.0
22/05:30pm 34.6 38.0 22.0 48 8.6 NNE 7 13 4 7 1004.4 1004.2 0.0
22/05:00pm 33.4 37.4 23.7 56 6.8 NW 9 15 5 8 1004.3 1004.1 0.0
22/04:30pm 33.4 37.4 23.7 56 6.8 WSW 9 13 5 7 1004.7 1004.5 0.0
22/04:00pm 32.8 36.4 23.7 58 6.3 WNW 11 19 6 10 1005.1 1004.9 0.0
22/03:30pm 33.8 38.2 23.8 56 7.0 W 7 11 4 6 1005.5 1005.3 0.0
22/03:00pm 33.5 38.1 23.8 57 6.8 WNW 6 13 3 7 1005.7 1005.5 0.0
22/02:30pm 34.6 38.0 22.0 48 8.6 NW 7 13 4 7 1005.9 1005.7 0.0
22/02:00pm 34.2 38.3 23.2 52 7.6 NNW 7 13 4 7 1006.4 1006.2 0.0
22/01:30pm 34.5 38.2 23.2 51 7.9 NNW 9 17 5 9 1007.0 1006.8 0.0
22/01:00pm 34.2 38.1 22.6 50 8.0 NE 6 17 3 9 1007.3 1007.1 0.0
22/12:30pm 33.2 36.8 22.3 52 7.5 N 7 13 4 7 1007.6 1007.4 0.0
22/12:00pm 33.5 37.4 22.6 53 7.5 NE 6 15 3 8 1008.0 1007.8 0.0
22/11:30am 33.0 37.0 22.7 54 7.1 SE 6 11 3 6 1008.5 1008.3 0.0
22/11:00am 31.6 35.8 23.4 61 5.7 NNE 7 11 4 6 1008.6 1008.4 0.0
22/10:30am 31.5 35.5 23.1 61 5.8 NNE 7 13 4 7 1008.5 1008.3 0.0
22/10:00am 31.2 35.5 23.6 64 5.3 NNE 7 11 4 6 1008.7 1008.5 0.0
22/09:30am 29.4 34.1 24.3 74 3.6 NNE 7 13 4 7 1008.9 1008.7 0.0
22/09:00am 28.0 32.8 24.2 80 2.6 NNE 6 11 3 6 1009.1 1008.9 5.6
22/08:30am 27.4 32.0 24.1 82 2.3 NNE 7 13 4 7 1009.0 1008.8 5.6
22/08:00am 27.2 32.5 25.8 92 1.0 ENE 9 13 5 7 1008.7 1008.5 5.6
22/07:30am 26.6 32.7 25.7 95 0.6 SE 4 7 2 4 1008.2 1008.0 5.6
22/07:00am 26.4 32.3 25.4 94 0.7 SE 4 6 2 3 1007.8 1007.6 5.6
22/06:30am 27.1 32.0 24.6 86 1.7 SSE 7 17 4 9 1007.5 1007.3 0.2
22/06:00am 27.3 34.0 25.9 92 1.0 E 2 4 1 2 1007.3 1007.1 0.0
22/05:30am 27.2 33.8 25.8 92 1.0 ESE 2 4 1 2 1006.8 1006.6 0.0
22/05:00am 27.3 34.3 25.9 92 1.0 CALM 0 0 0 0 1006.8 1006.6 0.0
22/04:30am 27.3 34.1 25.5 90 1.3 CALM 0 0 0 0 1006.5 1006.3 0.0
22/04:00am 27.4 34.4 25.8 91 1.1 CALM 0 0 0 0 1006.4 1006.2 0.0
22/03:30am 27.1 33.9 25.5 91 1.1 CALM 0 0 0 0 1006.6 1006.4 0.0
22/03:00am 27.6 34.6 25.8 90 1.3 CALM 0 0 0 0 1006.7 1006.5 0.0
22/02:30am 27.6 34.4 25.6 89 1.4 CALM 0 0 0 0 1006.6 1006.4 0.0
22/02:00am 27.9 34.8 25.7 88 1.6 CALM 0 0 0 0 1006.6 1006.4 0.0
22/01:30am 28.3 35.3 25.9 87 1.7 CALM 0 0 0 0 1006.9 1006.7 0.0
22/01:00am 28.2 34.9 25.4 85 2.0 CALM 0 0 0 0 1007.0 1006.8 0.0
22/12:30am 28.6 35.3 25.4 83 2.3 CALM 0 0 0 0 1007.2 1007.0 0.0
22/12:00am 29.2 35.7 25.6 81 2.5 SW 2 4 1 2 1007.5 1007.3 0.0
 
Date/Time
CST
Temp
°C
App
Temp
°C
Dew
Point
Rel
Hum
%
Delta-T
°C
Wind Press
QNH
hPa
Press
MSL
hPa
Rain
since 9 am
mm
Dir
 
Spd
km/h
Gust
km/h
Spd
kts
Gust
kts
21/11:30pm 29.5 35.9 25.5 79 2.8 WNW 2 2 1 1 1007.7 1007.5 0.0
21/11:00pm 29.6 35.5 25.4 78 3.0 NW 4 6 2 3 1007.6 1007.4 0.0
21/10:30pm 29.9 34.7 24.5 73 3.8 NW 7 13 4 7 1007.4 1007.2 0.0
21/10:00pm 30.3 36.0 24.4 70 4.1 WNW 2 4 1 2 1007.3 1007.1 0.0
21/09:30pm 30.3 35.9 24.9 73 3.8 NNW 4 6 2 3 1006.9 1006.7 0.0
21/09:00pm 30.2 35.9 25.0 73 3.7 N 4 6 2 3 1006.4 1006.2 0.0
21/08:30pm 31.3 37.2 24.7 68 4.6 WNW 2 4 1 2 1006.0 1005.8 0.0
21/08:00pm 31.8 37.3 24.7 66 5.0 WNW 4 6 2 3 1005.7 1005.5 0.0
21/07:30pm 32.1 37.7 24.9 65 5.1 NW 4 7 2 4 1005.4 1005.2 0.0
21/07:00pm 32.6 37.7 24.9 64 5.4 NNW 7 11 4 6 1004.8 1004.6 0.0
21/06:30pm 34.2 38.4 23.2 52 7.6 NNW 6 9 3 5 1004.3 1004.1 0.0
21/06:00pm 34.5 38.6 22.9 51 8.0 WNW 6 9 3 5 1004.0 1003.8 0.0
21/05:30pm 35.5 39.7 23.1 48 8.6 NE 6 9 3 5 1003.9 1003.7 0.0
21/05:00pm 34.6 38.6 22.0 48 8.6 N 4 11 2 6 1004.0 1003.8 0.0
21/04:30pm 35.0 38.8 22.7 49 8.5 N 7 11 4 6 1004.2 1004.0 0.0
21/04:00pm 34.0 38.9 24.3 57 6.8 ESE 6 11 3 6 1004.5 1004.3 0.0
21/03:30pm 33.6 38.1 23.9 57 6.8 ENE 7 11 4 6 1004.9 1004.7 0.0
21/03:00pm 33.9 38.5 24.2 57 6.8 SE 7 13 4 7 1005.3 1005.1 0.0
21/02:30pm 34.1 39.0 24.4 57 6.8 ENE 6 13 3 7 1005.9 1005.7 0.0
21/02:00pm 33.2 38.5 24.4 60 6.2 SSE 4 7 2 4 1006.3 1006.1 0.0
21/01:30pm 33.2 38.3 24.1 59 6.4 NE 4 11 2 6 1007.0 1006.8 0.0
21/01:00pm 32.4 37.1 23.9 61 5.9 NNE 6 11 3 6 1007.5 1007.3 0.0
21/12:30pm 32.4 36.9 23.6 59 6.1 NE 6 9 3 5 1007.8 1007.6 0.0
21/12:00pm 32.6 37.4 24.1 61 5.9 ENE 6 9 3 5 1008.2 1008.0 0.0
21/11:30am 32.1 37.1 23.9 62 5.7 E 4 6 2 3 1008.7 1008.5 0.0
21/11:00am 31.3 35.3 23.7 64 5.3 E 9 11 5 6 1009.3 1009.1 0.0
21/10:30am 30.8 34.6 23.5 65 5.0 ESE 9 13 5 7 1009.7 1009.5 0.0
21/10:00am 30.0 34.6 24.2 71 4.0 ESE 7 9 4 5 1009.7 1009.5 0.0
21/09:30am 29.2 33.9 24.3 75 3.4 E 7 9 4 5 1009.5 1009.3 0.0
21/09:00am 28.8 33.8 24.8 79 2.8 SE 7 13 4 7 1009.6 1009.4 0.0
21/08:30am 28.6 33.6 26.0 86 1.8 SE 11 17 6 9 1009.6 1009.4 0.0
21/08:00am 28.4 34.3 26.2 88 1.6 SSE 7 11 4 6 1008.9 1008.7 0.0
21/07:30am 27.6 33.5 26.2 92 1.0 ESE 7 9 4 5 1008.5 1008.3 0.0
21/07:00am 27.2 33.1 25.4 90 1.3 SE 4 6 2 3 1007.9 1007.7 0.0
21/06:30am 27.1 33.9 25.5 91 1.1 CALM 0 0 0 0 1007.6 1007.4 0.0
21/06:00am 27.1 33.9 25.5 91 1.1 CALM 0 0 0 0 1007.2 1007.0 0.0
21/05:30am 27.0 33.3 25.4 91 1.1 E 2 4 1 2 1007.1 1006.9 0.0
21/05:00am 27.1 33.9 25.5 91 1.1 CALM 0 0 0 0 1006.5 1006.3 0.0
21/04:30am 27.4 34.2 25.6 90 1.3 CALM 0 0 0 0 1006.4 1006.2 0.0
21/04:00am 28.0 35.0 25.8 88 1.6 CALM 0 0 0 0 1006.3 1006.1 0.0
21/03:30am 28.3 35.3 25.9 87 1.7 CALM 0 0 0 0 1006.3 1006.1 0.0
21/03:00am 28.5 35.3 25.5 84 2.1 CALM 0 0 0 0 1006.2 1006.0 0.0
21/02:30am 28.7 35.1 25.5 83 2.3 W 2 6 1 3 1006.4 1006.2 0.0
21/02:00am 29.0 35.2 25.8 83 2.3 NW 4 6 2 3 1006.7 1006.5 0.0
21/01:30am 28.8 35.3 25.6 83 2.3 WNW 2 7 1 4 1007.2 1007.0 0.0
21/01:00am 29.1 35.4 25.3 80 2.7 W 2 4 1 2 1007.5 1007.3 0.0
21/12:30am 29.2 35.0 25.2 79 2.8 W 4 6 2 3 1007.9 1007.7 0.0
21/12:00am 29.3 34.9 24.8 77 3.2 W 4 7 2 4 1008.1 1007.9 0.0
 
Date/Time
CST
Temp
°C
App
Temp
°C
Dew
Point
Rel
Hum
%
Delta-T
°C
Wind Press
QNH
hPa
Press
MSL
hPa
Rain
since 9 am
mm
Dir
 
Spd
km/h
Gust
km/h
Spd
kts
Gust
kts
20/11:30pm 29.6 34.4 24.2 73 3.8 WSW 6 9 3 5 1008.5 1008.3 0.0
20/11:00pm 29.9 34.2 23.6 69 4.3 WSW 7 9 4 5 1008.3 1008.1 0.0
20/10:30pm 30.1 34.2 23.0 65 4.9 SW 6 9 3 5 1008.1 1007.9 0.0
20/10:00pm 30.0 34.2 22.4 63 5.2 NW 4 6 2 3 1007.6 1007.4 0.0
20/09:30pm 30.3 34.0 22.2 62 5.5 NNW 6 7 3 4 1007.2 1007.0 0.0
20/09:00pm 30.7 34.6 21.8 59 6.0 N 4 4 2 2 1006.8 1006.6 0.0
20/08:30pm 31.2 35.4 21.7 57 6.4 N 2 4 1 2 1006.2 1006.0 0.0
20/08:00pm 31.7 35.6 21.8 55 6.7 N 4 6 2 3 1006.1 1005.9 0.0
20/07:30pm 32.6 36.5 21.8 53 7.3 NNW 4 6 2 3 1005.7 1005.5 0.0
20/07:00pm 33.3 36.2 21.1 48 8.2 NNW 7 13 4 7 1004.8 1004.6 0.0
20/06:30pm 34.2 37.5 21.9 48 8.4 NNW 7 13 4 7 1004.6 1004.4 0.0
20/06:00pm 34.2 37.3 22.9 51 7.8 N 11 17 6 9 1004.3 1004.1 0.0
20/05:30pm 36.3 40.2 22.5 45 9.6 NNE 6 15 3 8 1003.9 1003.7 0.0
20/05:00pm 36.4 39.3 20.6 39 10.7 N 6 13 3 7 1003.9 1003.7 0.0
20/04:30pm 36.2 39.2 20.8 40 10.4 NNW 6 11 3 6 1003.8 1003.6 0.0
20/04:00pm 36.4 39.7 21.4 41 10.2 N 6 13 3 7 1004.1 1003.9 0.0
20/03:30pm 36.4 39.7 22.5 44 9.6 NNW 9 19 5 10 1004.5 1004.3 0.0
20/03:00pm 36.0 38.9 21.1 42 10.1 E 7 11 4 6 1005.2 1005.0 0.0
20/02:30pm 35.8 39.2 22.0 44 9.5 E 7 9 4 5 1005.6 1005.4 0.0
20/02:00pm 35.0 39.0 22.7 49 8.5 ENE 6 11 3 6 1006.0 1005.8 0.0
20/01:30pm 35.6 39.5 22.5 46 9.1 NNE 6 11 3 6 1006.5 1006.3 0.0
20/01:00pm 35.2 39.4 23.2 49 8.3 ENE 6 9 3 5 1007.2 1007.0 0.0
20/12:30pm 34.1 38.7 23.8 55 7.2 S 6 13 3 7 1007.8 1007.6 0.0
20/12:00pm 32.9 37.5 23.8 58 6.3 SE 6 11 3 6 1008.3 1008.1 0.0

Other Formats:

Comma delimited format used in spreadsheet applications
http://www.bom.gov.au/fwo/IDD60801/IDD60801.94105.axf

JavaScript Object Notation format (JSON) in row-major order
http://www.bom.gov.au/fwo/IDD60801/IDD60801.94105.json